sensor_id;sensor_type;location;lat;lon;timestamp;pressure;altitude;pressure_sealevel;temperature;humidity
8298;BME280;4187;42.778;23.242;2023-05-19T00:01:12;95522.47;;;11.48;100.00
8298;BME280;4187;42.778;23.242;2023-05-19T00:03:49;95522.22;;;11.41;100.00
8298;BME280;4187;42.778;23.242;2023-05-19T00:06:21;95531.81;;;11.42;100.00
8298;BME280;4187;42.778;23.242;2023-05-19T00:08:49;95522.53;;;11.38;100.00
8298;BME280;4187;42.778;23.242;2023-05-19T00:11:23;95522.53;;;11.38;100.00
8298;BME280;4187;42.778;23.242;2023-05-19T00:13:52;95519.69;;;11.49;100.00
8298;BME280;4187;42.778;23.242;2023-05-19T00:16:19;95521.47;;;11.58;100.00
8298;BME280;4187;42.778;23.242;2023-05-19T00:18:46;95520.91;;;11.55;100.00
8298;BME280;4187;42.778;23.242;2023-05-19T00:21:13;95517.56;;;11.62;100.00
8298;BME280;4187;42.778;23.242;2023-05-19T00:23:40;95519.13;;;11.55;100.00
8298;BME280;4187;42.778;23.242;2023-05-19T00:26:07;95517.94;;;11.40;100.00
8298;BME280;4187;42.778;23.242;2023-05-19T00:28:35;95522.41;;;11.30;100.00
8298;BME280;4187;42.778;23.242;2023-05-19T00:31:03;95513.09;;;11.26;100.00
8298;BME280;4187;42.778;23.242;2023-05-19T00:33:30;95517.81;;;11.22;100.00
8298;BME280;4187;42.778;23.242;2023-05-19T00:35:58;95512.69;;;11.21;100.00
8298;BME280;4187;42.778;23.242;2023-05-19T00:38:27;95515.63;;;11.18;100.00
8298;BME280;4187;42.778;23.242;2023-05-19T00:40:54;95511.16;;;11.18;100.00
8298;BME280;4187;42.778;23.242;2023-05-19T00:43:20;95510.72;;;11.23;100.00
8298;BME280;4187;42.778;23.242;2023-05-19T00:45:49;95508.66;;;11.26;100.00
8298;BME280;4187;42.778;23.242;2023-05-19T00:48:16;95514.34;;;11.22;100.00
8298;BME280;4187;42.778;23.242;2023-05-19T00:50:43;95505.34;;;11.15;100.00
8298;BME280;4187;42.778;23.242;2023-05-19T00:53:10;95513.13;;;11.16;100.00
8298;BME280;4187;42.778;23.242;2023-05-19T00:55:39;95505.06;;;11.18;100.00
8298;BME280;4187;42.778;23.242;2023-05-19T00:58:08;95505.09;;;11.08;100.00
8298;BME280;4187;42.778;23.242;2023-05-19T01:00:35;95508.13;;;11.13;100.00
8298;BME280;4187;42.778;23.242;2023-05-19T01:03:04;95503.81;;;11.12;100.00
8298;BME280;4187;42.778;23.242;2023-05-19T01:05:37;95506.75;;;11.00;100.00
8298;BME280;4187;42.778;23.242;2023-05-19T01:08:04;95502.88;;;10.94;100.00
8298;BME280;4187;42.778;23.242;2023-05-19T01:10:32;95509.13;;;10.93;100.00
8298;BME280;4187;42.778;23.242;2023-05-19T01:12:59;95503.44;;;10.88;100.00
8298;BME280;4187;42.778;23.242;2023-05-19T01:15:26;95504.69;;;10.84;100.00
8298;BME280;4187;42.778;23.242;2023-05-19T01:17:59;95504.28;;;10.79;100.00
8298;BME280;4187;42.778;23.242;2023-05-19T01:20:33;95504.97;;;10.71;100.00
8298;BME280;4187;42.778;23.242;2023-05-19T01:23:26;95499.97;;;10.68;100.00
8298;BME280;4187;42.778;23.242;2023-05-19T01:26:15;95496.53;;;10.58;100.00
8298;BME280;4187;42.778;23.242;2023-05-19T01:29:13;95503.47;;;10.40;100.00
8298;BME280;4187;42.778;23.242;2023-05-19T01:31:45;95502.22;;;10.44;100.00
8298;BME280;4187;42.778;23.242;2023-05-19T01:34:13;95503.34;;;10.51;100.00
8298;BME280;4187;42.778;23.242;2023-05-19T01:36:42;95505.28;;;10.40;100.00
8298;BME280;4187;42.778;23.242;2023-05-19T01:39:10;95501.09;;;10.37;100.00
8298;BME280;4187;42.778;23.242;2023-05-19T01:41:38;95516.09;;;10.37;100.00
8298;BME280;4187;42.778;23.242;2023-05-19T01:44:07;95517.75;;;10.47;100.00
8298;BME280;4187;42.778;23.242;2023-05-19T01:46:34;95519.84;;;10.44;100.00
8298;BME280;4187;42.778;23.242;2023-05-19T01:49:03;95510.13;;;10.35;100.00
8298;BME280;4187;42.778;23.242;2023-05-19T01:51:31;95514.84;;;10.31;100.00
8298;BME280;4187;42.778;23.242;2023-05-19T01:53:57;95493.28;;;10.16;100.00
8298;BME280;4187;42.778;23.242;2023-05-19T01:56:32;95493.59;;;10.13;100.00
8298;BME280;4187;42.778;23.242;2023-05-19T01:59:14;95499.00;;;10.22;100.00
8298;BME280;4187;42.778;23.242;2023-05-19T02:01:48;95512.06;;;10.23;100.00
8298;BME280;4187;42.778;23.242;2023-05-19T02:04:26;95508.81;;;10.10;100.00
8298;BME280;4187;42.778;23.242;2023-05-19T02:07:00;95507.84;;;10.11;100.00
8298;BME280;4187;42.778;23.242;2023-05-19T02:09:37;95492.16;;;10.00;100.00
8298;BME280;4187;42.778;23.242;2023-05-19T02:12:10;95506.19;;;10.10;100.00
8298;BME280;4187;42.778;23.242;2023-05-19T02:14:47;95502.75;;;10.19;100.00
8298;BME280;4187;42.778;23.242;2023-05-19T02:17:17;95504.16;;;10.13;100.00
8298;BME280;4187;42.778;23.242;2023-05-19T02:19:46;95504.88;;;9.95;100.00
8298;BME280;4187;42.778;23.242;2023-05-19T02:22:12;95517.25;;;10.04;100.00
8298;BME280;4187;42.778;23.242;2023-05-19T02:24:39;95520.47;;;10.07;100.00
8298;BME280;4187;42.778;23.242;2023-05-19T02:27:08;95509.09;;;10.07;100.00
8298;BME280;4187;42.778;23.242;2023-05-19T02:29:35;95519.06;;;10.03;100.00
8298;BME280;4187;42.778;23.242;2023-05-19T02:32:02;95520.16;;;10.01;100.00
8298;BME280;4187;42.778;23.242;2023-05-19T02:34:29;95516.56;;;10.02;100.00
8298;BME280;4187;42.778;23.242;2023-05-19T02:36:57;95515.88;;;10.09;100.00
8298;BME280;4187;42.778;23.242;2023-05-19T02:39:24;95506.16;;;10.00;100.00
8298;BME280;4187;42.778;23.242;2023-05-19T02:41:51;95514.63;;;10.04;100.00
8298;BME280;4187;42.778;23.242;2023-05-19T02:44:18;95512.41;;;10.09;100.00
8298;BME280;4187;42.778;23.242;2023-05-19T02:46:45;95514.19;;;9.99;100.00
8298;BME280;4187;42.778;23.242;2023-05-19T02:49:11;95519.22;;;10.11;100.00
8298;BME280;4187;42.778;23.242;2023-05-19T02:51:38;95516.72;;;10.10;100.00
8298;BME280;4187;42.778;23.242;2023-05-19T02:54:06;95533.00;;;10.15;100.00
8298;BME280;4187;42.778;23.242;2023-05-19T02:56:33;95525.94;;;10.15;100.00
8298;BME280;4187;42.778;23.242;2023-05-19T02:59:00;95513.25;;;10.00;100.00
8298;BME280;4187;42.778;23.242;2023-05-19T03:01:27;95514.63;;;9.94;100.00
8298;BME280;4187;42.778;23.242;2023-05-19T03:03:54;95531.44;;;10.03;100.00
8298;BME280;4187;42.778;23.242;2023-05-19T03:06:21;95523.38;;;10.04;100.00
8298;BME280;4187;42.778;23.242;2023-05-19T03:08:48;95536.13;;;10.09;100.00
8298;BME280;4187;42.778;23.242;2023-05-19T03:11:17;95533.16;;;10.13;100.00
8298;BME280;4187;42.778;23.242;2023-05-19T03:13:43;95539.78;;;10.08;100.00
8298;BME280;4187;42.778;23.242;2023-05-19T03:16:10;95541.13;;;10.02;100.00
8298;BME280;4187;42.778;23.242;2023-05-19T03:18:38;95546.41;;;10.02;100.00
8298;BME280;4187;42.778;23.242;2023-05-19T03:21:05;95548.63;;;10.07;100.00
8298;BME280;4187;42.778;23.242;2023-05-19T03:23:32;95537.81;;;10.10;100.00
8298;BME280;4187;42.778;23.242;2023-05-19T03:25:58;95545.31;;;10.05;100.00
8298;BME280;4187;42.778;23.242;2023-05-19T03:28:27;95536.25;;;9.98;100.00
8298;BME280;4187;42.778;23.242;2023-05-19T03:30:53;95542.38;;;9.98;100.00
8298;BME280;4187;42.778;23.242;2023-05-19T03:33:20;95531.53;;;9.92;100.00
8298;BME280;4187;42.778;23.242;2023-05-19T03:35:48;95525.28;;;9.93;100.00
8298;BME280;4187;42.778;23.242;2023-05-19T03:38:15;95538.03;;;9.88;100.00
8298;BME280;4187;42.778;23.242;2023-05-19T03:40:41;95514.69;;;9.74;100.00
8298;BME280;4187;42.778;23.242;2023-05-19T03:43:09;95539.44;;;9.92;100.00
8298;BME280;4187;42.778;23.242;2023-05-19T03:45:37;95525.13;;;9.85;100.00
8298;BME280;4187;42.778;23.242;2023-05-19T03:48:05;95528.06;;;9.91;100.00
8298;BME280;4187;42.778;23.242;2023-05-19T03:50:31;95534.19;;;9.92;100.00
8298;BME280;4187;42.778;23.242;2023-05-19T03:52:58;95534.22;;;10.11;100.00
8298;BME280;4187;42.778;23.242;2023-05-19T03:55:26;95540.53;;;10.96;100.00
8298;BME280;4187;42.778;23.242;2023-05-19T03:57:54;95543.03;;;11.73;100.00
8298;BME280;4187;42.778;23.242;2023-05-19T04:00:21;95545.03;;;12.16;100.00
8298;BME280;4187;42.778;23.242;2023-05-19T04:02:49;95541.00;;;12.39;100.00
8298;BME280;4187;42.778;23.242;2023-05-19T04:05:16;95539.56;;;12.44;100.00
8298;BME280;4187;42.778;23.242;2023-05-19T04:07:43;95550.34;;;12.78;100.00
8298;BME280;4187;42.778;23.242;2023-05-19T04:10:11;95570.16;;;13.09;100.00
8298;BME280;4187;42.778;23.242;2023-05-19T04:12:39;95571.91;;;13.18;100.00
8298;BME280;4187;42.778;23.242;2023-05-19T04:15:06;95572.81;;;13.53;100.00
8298;BME280;4187;42.778;23.242;2023-05-19T04:17:36;95567.72;;;13.59;100.00
8298;BME280;4187;42.778;23.242;2023-05-19T04:20:05;95567.88;;;13.58;100.00
8298;BME280;4187;42.778;23.242;2023-05-19T04:22:32;95578.69;;;13.64;100.00
8298;BME280;4187;42.778;23.242;2023-05-19T04:24:59;95577.66;;;13.83;100.00
8298;BME280;4187;42.778;23.242;2023-05-19T04:27:26;95578.88;;;13.71;100.00
8298;BME280;4187;42.778;23.242;2023-05-19T04:29:54;95557.47;;;13.39;100.00
8298;BME280;4187;42.778;23.242;2023-05-19T04:32:22;95567.69;;;13.34;100.00
8298;BME280;4187;42.778;23.242;2023-05-19T04:34:49;95578.25;;;13.26;100.00
8298;BME280;4187;42.778;23.242;2023-05-19T04:37:18;95567.75;;;13.16;100.00
8298;BME280;4187;42.778;23.242;2023-05-19T04:39:45;95565.44;;;13.03;100.00
8298;BME280;4187;42.778;23.242;2023-05-19T04:42:12;95573.09;;;13.06;100.00
8298;BME280;4187;42.778;23.242;2023-05-19T04:44:43;95553.72;;;12.88;100.00
8298;BME280;4187;42.778;23.242;2023-05-19T04:47:10;95548.66;;;12.77;100.00
8298;BME280;4187;42.778;23.242;2023-05-19T04:49:37;95555.53;;;12.88;100.00
8298;BME280;4187;42.778;23.242;2023-05-19T04:52:05;95557.50;;;12.86;100.00
8298;BME280;4187;42.778;23.242;2023-05-19T04:54:36;95567.63;;;12.90;100.00
8298;BME280;4187;42.778;23.242;2023-05-19T04:57:04;95568.25;;;12.84;100.00
8298;BME280;4187;42.778;23.242;2023-05-19T04:59:31;95570.59;;;12.87;100.00
8298;BME280;4187;42.778;23.242;2023-05-19T05:01:58;95565.38;;;12.95;100.00
8298;BME280;4187;42.778;23.242;2023-05-19T05:04:24;95569.22;;;13.01;100.00
8298;BME280;4187;42.778;23.242;2023-05-19T05:06:51;95571.81;;;12.93;100.00
8298;BME280;4187;42.778;23.242;2023-05-19T05:09:18;95576.34;;;13.00;100.00
8298;BME280;4187;42.778;23.242;2023-05-19T05:11:47;95567.88;;;12.97;100.00
8298;BME280;4187;42.778;23.242;2023-05-19T05:14:14;95585.09;;;13.10;100.00
8298;BME280;4187;42.778;23.242;2023-05-19T05:16:42;95582.44;;;13.10;100.00
8298;BME280;4187;42.778;23.242;2023-05-19T05:19:09;95579.31;;;13.15;100.00
8298;BME280;4187;42.778;23.242;2023-05-19T05:21:36;95580.47;;;13.12;100.00
8298;BME280;4187;42.778;23.242;2023-05-19T05:24:04;95582.50;;;13.18;100.00
8298;BME280;4187;42.778;23.242;2023-05-19T05:26:32;95581.06;;;13.24;100.00
8298;BME280;4187;42.778;23.242;2023-05-19T05:29:01;95580.66;;;13.37;100.00
8298;BME280;4187;42.778;23.242;2023-05-19T05:31:28;95573.78;;;13.52;100.00
8298;BME280;4187;42.778;23.242;2023-05-19T05:33:55;95578.16;;;13.61;100.00
8298;BME280;4187;42.778;23.242;2023-05-19T05:36:21;95583.75;;;13.75;100.00
8298;BME280;4187;42.778;23.242;2023-05-19T05:38:48;95586.91;;;13.79;100.00
8298;BME280;4187;42.778;23.242;2023-05-19T05:41:15;95591.88;;;13.82;100.00
8298;BME280;4187;42.778;23.242;2023-05-19T05:43:42;95569.66;;;13.75;100.00
8298;BME280;4187;42.778;23.242;2023-05-19T05:46:10;95594.13;;;13.95;100.00
8298;BME280;4187;42.778;23.242;2023-05-19T05:48:37;95595.81;;;14.04;100.00
8298;BME280;4187;42.778;23.242;2023-05-19T05:51:07;95603.50;;;14.15;100.00
8298;BME280;4187;42.778;23.242;2023-05-19T05:53:37;95543.16;;;13.83;100.00
8298;BME280;4187;42.778;23.242;2023-05-19T05:56:07;95601.94;;;14.30;100.00
8298;BME280;4187;42.778;23.242;2023-05-19T05:58:34;95608.91;;;14.31;100.00
8298;BME280;4187;42.778;23.242;2023-05-19T06:01:02;95595.69;;;14.39;100.00
8298;BME280;4187;42.778;23.242;2023-05-19T06:03:30;95606.38;;;14.55;100.00
8298;BME280;4187;42.778;23.242;2023-05-19T06:05:57;95606.56;;;14.62;100.00
8298;BME280;4187;42.778;23.242;2023-05-19T06:08:24;95602.56;;;14.66;100.00
8298;BME280;4187;42.778;23.242;2023-05-19T06:10:51;95611.44;;;14.82;100.00
8298;BME280;4187;42.778;23.242;2023-05-19T06:13:18;95622.06;;;14.90;100.00
8298;BME280;4187;42.778;23.242;2023-05-19T06:15:48;95622.59;;;14.94;100.00
8298;BME280;4187;42.778;23.242;2023-05-19T06:18:15;95625.41;;;15.09;100.00
8298;BME280;4187;42.778;23.242;2023-05-19T06:20:43;95623.94;;;15.22;100.00
8298;BME280;4187;42.778;23.242;2023-05-19T06:23:10;95625.94;;;15.28;100.00
8298;BME280;4187;42.778;23.242;2023-05-19T06:25:36;95626.31;;;15.49;100.00
8298;BME280;4187;42.778;23.242;2023-05-19T06:28:03;95627.00;;;15.60;100.00
8298;BME280;4187;42.778;23.242;2023-05-19T06:30:30;95601.50;;;15.41;100.00
8298;BME280;4187;42.778;23.242;2023-05-19T06:32:57;95627.00;;;15.68;100.00
8298;BME280;4187;42.778;23.242;2023-05-19T06:35:24;95628.47;;;15.86;100.00
8298;BME280;4187;42.778;23.242;2023-05-19T06:37:52;95626.13;;;15.91;100.00
8298;BME280;4187;42.778;23.242;2023-05-19T06:40:20;95630.75;;;16.13;100.00
8298;BME280;4187;42.778;23.242;2023-05-19T06:42:46;95635.56;;;16.18;100.00
8298;BME280;4187;42.778;23.242;2023-05-19T06:45:14;95631.41;;;16.15;100.00
8298;BME280;4187;42.778;23.242;2023-05-19T06:47:40;95636.88;;;16.22;100.00
8298;BME280;4187;42.778;23.242;2023-05-19T06:50:09;95639.00;;;16.43;100.00
8298;BME280;4187;42.778;23.242;2023-05-19T06:52:36;95643.94;;;16.62;100.00
8298;BME280;4187;42.778;23.242;2023-05-19T06:55:05;95638.06;;;16.74;100.00
8298;BME280;4187;42.778;23.242;2023-05-19T06:57:32;95643.50;;;16.89;100.00
8298;BME280;4187;42.778;23.242;2023-05-19T06:59:59;95635.25;;;16.99;100.00
8298;BME280;4187;42.778;23.242;2023-05-19T07:02:26;95635.81;;;17.17;100.00
8298;BME280;4187;42.778;23.242;2023-05-19T07:04:52;95632.81;;;17.43;100.00
8298;BME280;4187;42.778;23.242;2023-05-19T07:07:19;95649.72;;;17.58;100.00
8298;BME280;4187;42.778;23.242;2023-05-19T07:09:46;95647.34;;;17.63;100.00
8298;BME280;4187;42.778;23.242;2023-05-19T07:12:15;95646.94;;;17.74;100.00
8298;BME280;4187;42.778;23.242;2023-05-19T07:14:41;95646.41;;;17.78;100.00
8298;BME280;4187;42.778;23.242;2023-05-19T07:17:08;95649.19;;;17.85;100.00
8298;BME280;4187;42.778;23.242;2023-05-19T07:19:35;95645.91;;;17.98;100.00
8298;BME280;4187;42.778;23.242;2023-05-19T07:22:02;95652.97;;;17.90;100.00
8298;BME280;4187;42.778;23.242;2023-05-19T07:24:29;95654.06;;;17.81;100.00
8298;BME280;4187;42.778;23.242;2023-05-19T07:26:56;95646.28;;;17.95;100.00
8298;BME280;4187;42.778;23.242;2023-05-19T07:29:24;95658.91;;;18.15;100.00
8298;BME280;4187;42.778;23.242;2023-05-19T07:31:51;95652.94;;;18.28;100.00
8298;BME280;4187;42.778;23.242;2023-05-19T07:34:22;95648.78;;;18.25;100.00
8298;BME280;4187;42.778;23.242;2023-05-19T07:36:49;95657.59;;;18.48;100.00
8298;BME280;4187;42.778;23.242;2023-05-19T07:39:16;95654.28;;;18.61;100.00
8298;BME280;4187;42.778;23.242;2023-05-19T07:41:42;95652.72;;;18.67;100.00
8298;BME280;4187;42.778;23.242;2023-05-19T07:44:09;95649.00;;;18.82;100.00
8298;BME280;4187;42.778;23.242;2023-05-19T07:46:38;95644.66;;;18.96;100.00
8298;BME280;4187;42.778;23.242;2023-05-19T07:49:04;95638.28;;;18.97;100.00
8298;BME280;4187;42.778;23.242;2023-05-19T07:51:31;95637.59;;;19.09;100.00
8298;BME280;4187;42.778;23.242;2023-05-19T07:53:58;95639.03;;;19.27;100.00
8298;BME280;4187;42.778;23.242;2023-05-19T07:56:25;95634.63;;;19.55;100.00
8298;BME280;4187;42.778;23.242;2023-05-19T07:58:52;95638.31;;;19.75;100.00
8298;BME280;4187;42.778;23.242;2023-05-19T08:01:19;95642.69;;;19.76;100.00
8298;BME280;4187;42.778;23.242;2023-05-19T08:03:47;95643.78;;;19.88;100.00
8298;BME280;4187;42.778;23.242;2023-05-19T08:06:14;95645.53;;;19.75;100.00
8298;BME280;4187;42.778;23.242;2023-05-19T08:08:41;95643.56;;;19.62;100.00
8298;BME280;4187;42.778;23.242;2023-05-19T08:11:08;95652.69;;;19.46;100.00
8298;BME280;4187;42.778;23.242;2023-05-19T08:13:35;95645.19;;;19.42;100.00
8298;BME280;4187;42.778;23.242;2023-05-19T08:16:01;95652.94;;;19.37;100.00
8298;BME280;4187;42.778;23.242;2023-05-19T08:18:29;95641.97;;;19.46;100.00
8298;BME280;4187;42.778;23.242;2023-05-19T08:20:57;95642.22;;;19.73;100.00
8298;BME280;4187;42.778;23.242;2023-05-19T08:23:24;95647.28;;;20.10;100.00
8298;BME280;4187;42.778;23.242;2023-05-19T08:25:51;95646.28;;;20.17;100.00
8298;BME280;4187;42.778;23.242;2023-05-19T08:28:18;95637.19;;;20.12;100.00
8298;BME280;4187;42.778;23.242;2023-05-19T08:30:45;95633.41;;;20.27;100.00
8298;BME280;4187;42.778;23.242;2023-05-19T08:33:11;95643.50;;;20.53;100.00
8298;BME280;4187;42.778;23.242;2023-05-19T08:35:38;95641.94;;;20.72;100.00
8298;BME280;4187;42.778;23.242;2023-05-19T08:38:06;95642.00;;;20.85;100.00
8298;BME280;4187;42.778;23.242;2023-05-19T08:40:34;95643.66;;;20.86;100.00
8298;BME280;4187;42.778;23.242;2023-05-19T08:43:03;95640.16;;;20.85;100.00
8298;BME280;4187;42.778;23.242;2023-05-19T08:45:29;95630.16;;;21.07;100.00
8298;BME280;4187;42.778;23.242;2023-05-19T08:47:59;95635.78;;;21.19;100.00
8298;BME280;4187;42.778;23.242;2023-05-19T08:50:29;95637.44;;;21.20;99.92
8298;BME280;4187;42.778;23.242;2023-05-19T08:53:01;95641.16;;;21.19;98.03
8298;BME280;4187;42.778;23.242;2023-05-19T08:55:35;95631.47;;;21.31;100.00
8298;BME280;4187;42.778;23.242;2023-05-19T08:58:04;95629.50;;;21.59;100.00
8298;BME280;4187;42.778;23.242;2023-05-19T09:00:31;95636.31;;;21.75;100.00
8298;BME280;4187;42.778;23.242;2023-05-19T09:02:59;95633.84;;;21.67;97.09
8298;BME280;4187;42.778;23.242;2023-05-19T09:05:26;95624.53;;;21.69;94.10
8298;BME280;4187;42.778;23.242;2023-05-19T09:07:53;95617.09;;;21.52;96.39
8298;BME280;4187;42.778;23.242;2023-05-19T09:10:21;95613.75;;;21.43;94.69
8298;BME280;4187;42.778;23.242;2023-05-19T09:12:49;95613.34;;;21.53;94.24
8298;BME280;4187;42.778;23.242;2023-05-19T09:15:17;95612.78;;;21.70;97.63
8298;BME280;4187;42.778;23.242;2023-05-19T09:17:44;95610.06;;;21.64;94.76
8298;BME280;4187;42.778;23.242;2023-05-19T09:20:13;95601.63;;;21.93;96.26
8298;BME280;4187;42.778;23.242;2023-05-19T09:22:41;95614.66;;;22.35;95.39
8298;BME280;4187;42.778;23.242;2023-05-19T09:25:18;95609.84;;;22.57;94.65
8298;BME280;4187;42.778;23.242;2023-05-19T09:27:46;95600.94;;;22.70;92.79
8298;BME280;4187;42.778;23.242;2023-05-19T09:30:16;95604.13;;;23.04;97.28
8298;BME280;4187;42.778;23.242;2023-05-19T09:32:44;95579.38;;;23.27;94.66
8298;BME280;4187;42.778;23.242;2023-05-19T09:35:11;95581.78;;;23.42;91.02
8298;BME280;4187;42.778;23.242;2023-05-19T09:37:41;95587.06;;;23.61;92.83
8298;BME280;4187;42.778;23.242;2023-05-19T09:40:09;95601.84;;;23.84;93.33
8298;BME280;4187;42.778;23.242;2023-05-19T09:42:39;95594.75;;;23.89;86.29
8298;BME280;4187;42.778;23.242;2023-05-19T09:45:08;95588.13;;;23.85;89.31
8298;BME280;4187;42.778;23.242;2023-05-19T09:47:37;95585.41;;;24.16;93.05
8298;BME280;4187;42.778;23.242;2023-05-19T09:50:05;95588.53;;;24.38;89.28
8298;BME280;4187;42.778;23.242;2023-05-19T09:52:36;95563.97;;;24.46;88.88
8298;BME280;4187;42.778;23.242;2023-05-19T09:55:04;95584.41;;;24.72;83.43
8298;BME280;4187;42.778;23.242;2023-05-19T09:57:35;95576.19;;;24.85;84.37
8298;BME280;4187;42.778;23.242;2023-05-19T10:00:04;95582.13;;;24.93;84.03
8298;BME280;4187;42.778;23.242;2023-05-19T10:02:43;95582.13;;;24.93;80.66
8298;BME280;4187;42.778;23.242;2023-05-19T10:05:12;95571.13;;;24.95;77.48
8298;BME280;4187;42.778;23.242;2023-05-19T10:07:41;95568.34;;;24.83;70.58
8298;BME280;4187;42.778;23.242;2023-05-19T10:10:11;95570.81;;;24.85;74.15
8298;BME280;4187;42.778;23.242;2023-05-19T10:12:38;95570.53;;;24.68;73.80
8298;BME280;4187;42.778;23.242;2023-05-19T10:15:08;95576.13;;;24.73;75.26
8298;BME280;4187;42.778;23.242;2023-05-19T10:17:37;95569.06;;;24.72;66.84
8298;BME280;4187;42.778;23.242;2023-05-19T10:20:09;95566.31;;;24.79;71.60
8298;BME280;4187;42.778;23.242;2023-05-19T10:22:37;95558.66;;;24.76;72.24
8298;BME280;4187;42.778;23.242;2023-05-19T10:25:05;95554.00;;;24.83;72.57
8298;BME280;4187;42.778;23.242;2023-05-19T10:27:35;95561.50;;;24.99;73.11
8298;BME280;4187;42.778;23.242;2023-05-19T10:30:07;95559.91;;;25.10;75.79
8298;BME280;4187;42.778;23.242;2023-05-19T10:32:38;95558.53;;;25.19;72.00
8298;BME280;4187;42.778;23.242;2023-05-19T10:35:32;95542.97;;;25.03;68.62
8298;BME280;4187;42.778;23.242;2023-05-19T10:38:11;95562.72;;;25.03;68.73
8298;BME280;4187;42.778;23.242;2023-05-19T10:40:48;95563.03;;;24.95;68.46
8298;BME280;4187;42.778;23.242;2023-05-19T10:43:24;95563.97;;;24.82;71.22
8298;BME280;4187;42.778;23.242;2023-05-19T10:45:52;95566.19;;;24.31;68.83
8298;BME280;4187;42.778;23.242;2023-05-19T10:48:20;95544.06;;;23.98;70.12
8298;BME280;4187;42.778;23.242;2023-05-19T10:50:52;95557.50;;;24.29;73.62
8298;BME280;4187;42.778;23.242;2023-05-19T10:53:19;95505.31;;;24.17;71.68
8298;BME280;4187;42.778;23.242;2023-05-19T10:55:50;95546.56;;;24.78;77.53
8298;BME280;4187;42.778;23.242;2023-05-19T10:58:35;95545.56;;;25.09;74.23
8298;BME280;4187;42.778;23.242;2023-05-19T11:01:06;95547.19;;;25.28;77.18
8298;BME280;4187;42.778;23.242;2023-05-19T11:03:43;95552.25;;;25.36;69.64
8298;BME280;4187;42.778;23.242;2023-05-19T11:06:24;95541.81;;;25.40;73.71
8298;BME280;4187;42.778;23.242;2023-05-19T11:08:54;95545.56;;;25.39;72.08
8298;BME280;4187;42.778;23.242;2023-05-19T11:11:22;95539.56;;;25.37;69.79
8298;BME280;4187;42.778;23.242;2023-05-19T11:13:51;95552.38;;;25.12;71.70
8298;BME280;4187;42.778;23.242;2023-05-19T11:16:25;95543.31;;;25.24;70.33
8298;BME280;4187;42.778;23.242;2023-05-19T11:18:53;95549.28;;;25.26;70.13
8298;BME280;4187;42.778;23.242;2023-05-19T11:21:22;95544.91;;;25.14;71.47
8298;BME280;4187;42.778;23.242;2023-05-19T11:23:50;95530.13;;;24.98;69.13
8298;BME280;4187;42.778;23.242;2023-05-19T11:26:40;95541.19;;;25.26;72.07
8298;BME280;4187;42.778;23.242;2023-05-19T11:29:09;95539.56;;;25.37;72.29
8298;BME280;4187;42.778;23.242;2023-05-19T11:31:36;95539.72;;;25.42;67.08
8298;BME280;4187;42.778;23.242;2023-05-19T11:34:05;95540.91;;;25.46;69.49
8298;BME280;4187;42.778;23.242;2023-05-19T11:36:35;95534.13;;;25.55;67.86
8298;BME280;4187;42.778;23.242;2023-05-19T11:39:03;95534.38;;;25.24;69.97
8298;BME280;4187;42.778;23.242;2023-05-19T11:41:30;95485.94;;;24.63;68.20
8298;BME280;4187;42.778;23.242;2023-05-19T11:43:57;95524.00;;;24.73;69.55
8298;BME280;4187;42.778;23.242;2023-05-19T11:46:24;95527.47;;;24.44;70.09
8298;BME280;4187;42.778;23.242;2023-05-19T11:48:52;95537.63;;;24.42;69.63
8298;BME280;4187;42.778;23.242;2023-05-19T11:51:20;95527.56;;;24.30;68.64
8298;BME280;4187;42.778;23.242;2023-05-19T11:53:49;95530.66;;;24.16;68.88
8298;BME280;4187;42.778;23.242;2023-05-19T11:56:18;95533.00;;;24.06;68.60
8298;BME280;4187;42.778;23.242;2023-05-19T11:58:45;95529.53;;;23.99;69.62
8298;BME280;4187;42.778;23.242;2023-05-19T12:01:12;95529.97;;;23.96;70.23
8298;BME280;4187;42.778;23.242;2023-05-19T12:03:39;95534.63;;;24.07;71.04
8298;BME280;4187;42.778;23.242;2023-05-19T12:06:06;95531.78;;;24.02;70.90
8298;BME280;4187;42.778;23.242;2023-05-19T12:08:34;95522.31;;;23.93;71.92
8298;BME280;4187;42.778;23.242;2023-05-19T12:11:04;95529.25;;;23.82;69.97
8298;BME280;4187;42.778;23.242;2023-05-19T12:13:32;95506.47;;;23.60;68.51
8298;BME280;4187;42.778;23.242;2023-05-19T12:15:59;95539.09;;;23.45;72.87
8298;BME280;4187;42.778;23.242;2023-05-19T12:18:28;95520.84;;;22.58;80.34
8298;BME280;4187;42.778;23.242;2023-05-19T12:20:56;95542.31;;;21.81;83.32
8298;BME280;4187;42.778;23.242;2023-05-19T12:23:23;95559.41;;;21.34;88.23
8298;BME280;4187;42.778;23.242;2023-05-19T12:25:50;95555.84;;;20.60;88.18
8298;BME280;4187;42.778;23.242;2023-05-19T12:28:18;95555.94;;;20.05;88.20
8298;BME280;4187;42.778;23.242;2023-05-19T12:30:46;95560.69;;;19.54;89.69
8298;BME280;4187;42.778;23.242;2023-05-19T12:33:16;95553.66;;;19.10;94.56
8298;BME280;4187;42.778;23.242;2023-05-19T12:35:44;95526.69;;;18.70;100.00
8298;BME280;4187;42.778;23.242;2023-05-19T12:38:13;95554.84;;;18.51;100.00
8298;BME280;4187;42.778;23.242;2023-05-19T12:40:40;95555.28;;;18.40;100.00
8298;BME280;4187;42.778;23.242;2023-05-19T12:43:07;95550.97;;;18.10;100.00
8298;BME280;4187;42.778;23.242;2023-05-19T12:45:35;95541.09;;;17.81;100.00
8298;BME280;4187;42.778;23.242;2023-05-19T12:48:03;95560.59;;;17.67;100.00
8298;BME280;4187;42.778;23.242;2023-05-19T12:50:31;95529.63;;;17.58;100.00
8298;BME280;4187;42.778;23.242;2023-05-19T12:52:58;95549.00;;;17.60;100.00
8298;BME280;4187;42.778;23.242;2023-05-19T12:55:25;95536.09;;;17.63;100.00
8298;BME280;4187;42.778;23.242;2023-05-19T12:57:52;95530.03;;;17.69;100.00
8298;BME280;4187;42.778;23.242;2023-05-19T13:00:21;95536.19;;;17.84;100.00
8298;BME280;4187;42.778;23.242;2023-05-19T13:02:56;95541.44;;;17.92;100.00
8298;BME280;4187;42.778;23.242;2023-05-19T13:05:23;95510.09;;;17.95;100.00
8298;BME280;4187;42.778;23.242;2023-05-19T13:07:54;95530.16;;;18.05;100.00
8298;BME280;4187;42.778;23.242;2023-05-19T13:10:21;95530.44;;;18.10;99.69